createdAt,value
2023-04-26T00:00:09.573Z,50.72
2023-04-26T00:02:38.231Z,24.65
2023-04-26T00:05:09.575Z,17.80
2023-04-26T00:10:09.738Z,16.27
2023-04-26T00:12:37.772Z,16.25
2023-04-26T00:15:05.844Z,21.23
2023-04-26T00:17:34.213Z,15.73
2023-04-26T00:20:03.349Z,15.55
2023-04-26T00:22:31.722Z,16.92
2023-04-26T00:24:59.434Z,18.73
2023-04-26T00:27:27.352Z,19.25
2023-04-26T00:29:56.786Z,18.42
2023-04-26T00:32:24.527Z,16.55
2023-04-26T00:34:52.906Z,16.55
2023-04-26T00:37:21.788Z,15.63
2023-04-26T00:39:49.586Z,15.88
2023-04-26T00:42:19.648Z,14.90
2023-04-26T00:44:47.265Z,16.85
2023-04-26T00:47:15.454Z,16.45
2023-04-26T00:49:43.356Z,16.75
2023-04-26T00:52:11.258Z,15.07
2023-04-26T00:54:41.147Z,15.73
2023-04-26T00:57:10.265Z,16.92
2023-04-26T00:59:39.369Z,17.02
2023-04-26T01:02:07.323Z,17.25
2023-04-26T01:04:35.493Z,18.48
2023-04-26T01:07:04.055Z,15.52
2023-04-26T01:09:34.773Z,16.77
2023-04-26T01:12:02.669Z,16.60
2023-04-26T01:14:30.525Z,17.75
2023-04-26T01:16:58.694Z,16.13
2023-04-26T01:19:26.390Z,17.00
2023-04-26T01:21:54.028Z,15.43
2023-04-26T01:24:22.785Z,15.63
2023-04-26T01:26:50.865Z,16.65
2023-04-26T01:29:27.392Z,14.68
2023-04-26T01:31:55.082Z,13.85
2023-04-26T01:34:23.036Z,13.88
2023-04-26T01:36:51.324Z,12.43
2023-04-26T01:39:19.375Z,12.55
2023-04-26T01:41:47.650Z,12.23
2023-04-26T01:44:15.904Z,12.63
2023-04-26T01:46:43.652Z,12.10
2023-04-26T01:49:15.101Z,12.40
2023-04-26T01:51:42.897Z,12.25
2023-04-26T01:54:11.681Z,10.20
2023-04-26T01:56:39.694Z,11.88
2023-04-26T01:59:07.587Z,11.55
2023-04-26T02:01:37.616Z,10.02
2023-04-26T02:04:06.742Z,11.75
2023-04-26T02:06:35.814Z,11.13
2023-04-26T02:09:04.536Z,10.07
2023-04-26T02:11:32.822Z,11.02
2023-04-26T02:14:00.942Z,11.57
2023-04-26T02:16:28.929Z,10.95
2023-04-26T02:18:56.998Z,10.60
2023-04-26T02:21:27.379Z,11.52
2023-04-26T02:23:55.445Z,11.18
2023-04-26T02:26:23.267Z,11.25
2023-04-26T02:28:52.274Z,11.35
2023-04-26T02:31:22.814Z,11.63
2023-04-26T02:33:51.217Z,10.48
2023-04-26T02:36:19.090Z,11.70
2023-04-26T02:38:46.782Z,11.32
2023-04-26T02:41:14.567Z,12.10
2023-04-26T02:43:43.608Z,11.38
2023-04-26T02:46:12.024Z,12.70
2023-04-26T02:48:40.042Z,11.52
2023-04-26T02:51:09.025Z,11.40
2023-04-26T02:53:36.792Z,12.13
2023-04-26T02:56:04.719Z,12.10
2023-04-26T02:58:32.587Z,13.23
2023-04-26T03:01:01.885Z,12.77
2023-04-26T03:03:33.977Z,12.60
2023-04-26T03:06:03.304Z,17.60
2023-04-26T03:08:31.240Z,16.50
2023-04-26T03:10:59.269Z,19.05
2023-04-26T03:13:28.277Z,20.65
2023-04-26T03:15:58.872Z,24.13
2023-04-26T03:18:26.836Z,24.70
2023-04-26T03:20:55.119Z,26.13
2023-04-26T03:23:25.594Z,23.30
2023-04-26T03:25:54.748Z,28.05
2023-04-26T03:28:24.100Z,27.60
2023-04-26T03:30:52.072Z,24.95
2023-04-26T03:33:21.115Z,21.83
2023-04-26T03:35:48.915Z,18.58
2023-04-26T03:38:18.377Z,15.00
2023-04-26T03:40:46.540Z,14.13
2023-04-26T03:43:14.555Z,13.50
2023-04-26T03:45:48.018Z,13.10
2023-04-26T03:48:17.200Z,13.05
2023-04-26T03:50:46.308Z,12.32
2023-04-26T03:53:14.358Z,12.23
2023-04-26T03:55:42.898Z,10.98
2023-04-26T03:58:10.658Z,11.70
2023-04-26T04:00:38.772Z,11.70
2023-04-26T04:03:08.276Z,12.73
2023-04-26T04:05:36.456Z,14.23
2023-04-26T04:08:04.805Z,17.92
2023-04-26T04:10:32.744Z,17.60
2023-04-26T04:13:00.753Z,17.77
2023-04-26T04:15:29.060Z,17.88
2023-04-26T04:17:57.762Z,23.02
2023-04-26T04:20:27.081Z,21.20
2023-04-26T04:22:58.917Z,20.83
2023-04-26T04:25:27.414Z,20.58
2023-04-26T04:27:58.867Z,19.27
2023-04-26T04:30:26.809Z,19.05
2023-04-26T04:32:55.098Z,19.92
2023-04-26T04:35:23.441Z,21.20
2023-04-26T04:37:52.162Z,24.60
2023-04-26T04:40:19.967Z,22.02
2023-04-26T04:42:51.087Z,23.15
2023-04-26T04:45:21.721Z,25.20
2023-04-26T04:47:50.788Z,29.67
2023-04-26T04:50:18.816Z,34.10
2023-04-26T04:52:47.288Z,35.08
2023-04-26T04:55:17.623Z,36.72
2023-04-26T04:57:45.651Z,36.35
2023-04-26T05:00:14.559Z,33.88
2023-04-26T05:02:53.585Z,29.27
2023-04-26T05:05:21.532Z,26.02
2023-04-26T05:07:49.383Z,30.40
2023-04-26T05:10:17.937Z,33.03
2023-04-26T05:12:46.752Z,33.45
2023-04-26T05:15:16.387Z,47.05
2023-04-26T05:17:44.276Z,56.83
2023-04-26T05:20:20.930Z,61.28
2023-04-26T05:22:49.890Z,50.58
2023-04-26T05:25:19.244Z,26.90
2023-04-26T05:27:50.794Z,23.33
2023-04-26T05:30:48.159Z,17.67
2023-04-26T05:33:51.949Z,19.85
2023-04-26T05:36:30.844Z,17.90
2023-04-26T05:38:58.602Z,14.70
2023-04-26T05:41:26.471Z,13.68
2023-04-26T05:43:55.710Z,14.80
2023-04-26T05:46:24.078Z,16.08
2023-04-26T05:48:52.276Z,15.95
2023-04-26T05:51:21.547Z,17.42
2023-04-26T05:53:50.031Z,18.00
2023-04-26T05:56:18.086Z,17.52
2023-04-26T05:58:45.581Z,18.75
2023-04-26T06:01:13.953Z,17.45
2023-04-26T06:03:45.109Z,18.77
2023-04-26T06:06:13.061Z,21.60
2023-04-26T06:08:42.965Z,19.58
2023-04-26T06:11:11.826Z,19.90
2023-04-26T06:13:39.410Z,14.48
2023-04-26T06:16:09.289Z,16.13
2023-04-26T06:18:37.102Z,13.77
2023-04-26T06:21:05.329Z,14.27
2023-04-26T06:23:32.977Z,13.00
2023-04-26T06:26:01.263Z,14.60
2023-04-26T06:28:28.869Z,12.63
2023-04-26T06:30:56.628Z,19.15
2023-04-26T06:33:25.328Z,19.73
2023-04-26T06:35:53.210Z,21.95
2023-04-26T06:38:21.602Z,26.63
2023-04-26T06:40:49.181Z,15.45
2023-04-26T06:43:18.138Z,16.88
2023-04-26T06:45:57.157Z,17.52
2023-04-26T06:48:24.808Z,16.88
2023-04-26T06:50:52.432Z,11.27
2023-04-26T06:53:22.933Z,10.70
2023-04-26T06:55:50.681Z,13.63
2023-04-26T06:58:18.691Z,7.78
2023-04-26T07:00:46.129Z,11.85
2023-04-26T07:03:13.737Z,17.10
2023-04-26T07:05:41.645Z,18.95
2023-04-26T07:08:09.311Z,16.05
2023-04-26T07:10:38.119Z,16.88
2023-04-26T07:13:07.965Z,13.52
2023-04-26T07:15:36.906Z,14.10
2023-04-26T07:18:04.411Z,15.52
2023-04-26T07:20:32.397Z,16.02
2023-04-26T07:23:00.160Z,19.55
2023-04-26T07:25:27.710Z,16.98
2023-04-26T07:27:55.160Z,8.68
2023-04-26T07:30:22.708Z,8.90
2023-04-26T07:32:50.516Z,5.53
2023-04-26T07:35:18.092Z,4.32
2023-04-26T07:37:45.665Z,6.25
2023-04-26T07:40:13.788Z,7.10
2023-04-26T07:42:42.026Z,5.70
2023-04-26T07:45:10.325Z,5.65
2023-04-26T07:47:38.482Z,5.90
2023-04-26T07:50:06.644Z,4.97
2023-04-26T07:52:34.444Z,5.65
2023-04-26T07:55:02.152Z,5.80
2023-04-26T07:57:29.897Z,6.03
2023-04-26T07:59:57.954Z,7.20
2023-04-26T08:02:33.238Z,9.15
2023-04-26T08:05:05.692Z,9.48
2023-04-26T08:07:33.283Z,6.15
2023-04-26T08:10:01.042Z,4.38
2023-04-26T08:12:28.507Z,7.53
2023-04-26T08:14:56.177Z,6.18
2023-04-26T08:17:23.692Z,8.50
2023-04-26T08:19:51.608Z,10.85
2023-04-26T08:22:19.979Z,9.48
2023-04-26T08:24:50.172Z,5.03
2023-04-26T08:27:19.185Z,8.85
2023-04-26T08:29:46.856Z,4.53
2023-04-26T08:32:14.600Z,4.22
2023-04-26T08:34:42.719Z,4.80
2023-04-26T08:37:11.228Z,4.72
2023-04-26T08:39:39.836Z,7.05
2023-04-26T08:42:13.831Z,12.82
2023-04-26T08:44:45.127Z,3.75
2023-04-26T08:47:28.627Z,4.80
2023-04-26T08:50:01.075Z,5.60
2023-04-26T08:52:29.245Z,4.60
2023-04-26T08:55:00.404Z,9.40
2023-04-26T08:57:27.891Z,7.60
2023-04-26T08:59:56.300Z,5.57
2023-04-26T09:02:24.337Z,6.28
2023-04-26T09:04:52.255Z,4.50
2023-04-26T09:07:31.019Z,4.50
2023-04-26T09:09:59.000Z,4.43
2023-04-26T09:12:26.529Z,3.80
2023-04-26T09:14:54.830Z,3.60
2023-04-26T09:17:32.754Z,7.78
2023-04-26T09:20:01.016Z,4.30
2023-04-26T09:22:30.221Z,4.38
2023-04-26T09:24:58.105Z,3.72
2023-04-26T09:27:35.194Z,4.00
2023-04-26T09:30:11.241Z,4.15
2023-04-26T09:32:56.742Z,3.20
2023-04-26T09:35:32.668Z,3.13
2023-04-26T09:38:12.345Z,3.10
2023-04-26T09:40:41.905Z,2.53
2023-04-26T09:43:11.815Z,2.70
2023-04-26T09:45:58.449Z,3.65
2023-04-26T09:48:30.862Z,3.95
2023-04-26T09:50:59.710Z,4.90
2023-04-26T09:53:41.880Z,4.40
2023-04-26T09:56:10.120Z,2.42
2023-04-26T09:59:00.795Z,2.42
2023-04-26T10:01:33.341Z,2.88
2023-04-26T10:04:04.900Z,3.10
2023-04-26T10:06:33.087Z,5.63
2023-04-26T10:09:01.801Z,4.97
2023-04-26T10:11:29.353Z,6.07
2023-04-26T10:13:56.805Z,4.00
2023-04-26T10:16:24.429Z,3.47
2023-04-26T10:18:52.717Z,2.50
2023-04-26T10:21:27.672Z,4.75
2023-04-26T10:23:55.162Z,6.45
2023-04-26T10:26:57.651Z,2.95
2023-04-26T10:29:26.225Z,6.55
2023-04-26T10:32:03.000Z,4.50
2023-04-26T10:34:34.015Z,2.15
2023-04-26T10:37:11.281Z,2.10
2023-04-26T10:39:39.817Z,2.35
2023-04-26T10:58:50.768Z,2.00
2023-04-26T11:01:24.011Z,3.95
2023-04-26T11:04:12.554Z,2.60
2023-04-26T11:06:58.012Z,2.75
2023-04-26T11:09:36.268Z,6.28
2023-04-26T11:12:04.867Z,2.33
2023-04-26T11:14:35.338Z,2.10
2023-04-26T11:17:06.533Z,3.70
2023-04-26T11:19:35.706Z,3.40
2023-04-26T11:22:07.022Z,44.53
2023-04-26T11:24:39.268Z,8.77
2023-04-26T11:27:11.685Z,2.75
2023-04-26T11:29:40.908Z,2.38
2023-04-26T11:32:09.398Z,4.07
2023-04-26T11:34:41.783Z,3.95
2023-04-26T11:37:09.602Z,2.45
2023-04-26T11:39:37.437Z,2.03
2023-04-26T11:42:08.998Z,1.52
2023-04-26T11:44:37.485Z,2.58
2023-04-26T11:47:08.270Z,2.22
2023-04-26T11:49:38.911Z,14.98
2023-04-26T11:52:06.665Z,3.28
2023-04-26T11:54:36.194Z,3.08
2023-04-26T11:57:17.053Z,3.85
2023-04-26T11:59:46.175Z,2.90
2023-04-26T12:02:14.403Z,2.00
2023-04-26T12:04:42.390Z,2.10
2023-04-26T12:07:10.821Z,7.60
2023-04-26T12:09:41.824Z,4.15
2023-04-26T12:12:10.236Z,2.03
2023-04-26T12:14:40.134Z,5.97
2023-04-26T12:17:07.959Z,1.92
2023-04-26T12:19:40.256Z,4.70
2023-04-26T12:22:08.473Z,2.00
2023-04-26T12:24:38.065Z,6.72
2023-04-26T12:27:07.309Z,2.92
2023-04-26T12:29:35.133Z,5.60
2023-04-26T12:32:03.129Z,4.72
2023-04-26T12:34:31.132Z,3.17
2023-04-26T12:36:58.959Z,5.25
2023-04-26T12:39:26.611Z,6.40
2023-04-26T12:41:55.244Z,2.63
2023-04-26T12:44:22.941Z,1.80
2023-04-26T12:46:51.444Z,1.95
2023-04-26T12:49:18.963Z,1.90
2023-04-26T12:51:46.773Z,2.22
2023-04-26T12:54:14.393Z,1.83
2023-04-26T12:56:44.509Z,2.50
2023-04-26T12:59:12.116Z,5.40
2023-04-26T13:01:39.873Z,5.22
2023-04-26T13:04:07.838Z,2.10
2023-04-26T13:06:37.845Z,17.85
2023-04-26T13:09:08.003Z,13.95
2023-04-26T13:11:35.806Z,1.92
2023-04-26T13:14:03.251Z,1.65
2023-04-26T13:16:32.528Z,2.85
2023-04-26T13:19:00.182Z,2.10
2023-04-26T13:21:27.717Z,5.20
2023-04-26T13:23:55.172Z,1.88
2023-04-26T13:26:24.389Z,2.20
2023-04-26T13:28:52.810Z,1.90
2023-04-26T13:31:20.506Z,5.43
2023-04-26T13:33:49.809Z,2.67
2023-04-26T13:36:17.503Z,5.45
2023-04-26T13:38:45.193Z,2.40
2023-04-26T13:41:13.177Z,1.60
2023-04-26T13:43:41.116Z,3.33
2023-04-26T13:46:08.749Z,1.73
2023-04-26T13:48:36.517Z,1.73
2023-04-26T13:51:06.995Z,5.07
2023-04-26T13:56:02.550Z,1.75
2023-04-26T13:58:30.181Z,2.58
2023-04-26T14:00:57.622Z,2.88
2023-04-26T14:03:26.990Z,2.05
2023-04-26T14:05:55.160Z,1.52
2023-04-26T14:08:22.911Z,7.07
2023-04-26T14:10:51.774Z,1.70
2023-04-26T14:13:19.734Z,8.82
2023-04-26T14:15:47.735Z,7.18
2023-04-26T14:18:17.504Z,5.15
2023-04-26T14:20:45.216Z,4.63
2023-04-26T14:23:12.674Z,8.75
2023-04-26T14:25:41.540Z,2.08
2023-04-26T14:28:09.055Z,2.42
2023-04-26T14:30:36.638Z,4.20
2023-04-26T14:33:05.258Z,2.00
2023-04-26T14:35:32.782Z,2.78
2023-04-26T14:38:00.519Z,3.20
2023-04-26T14:40:28.157Z,2.70
2023-04-26T14:42:56.401Z,5.10
2023-04-26T14:45:33.406Z,2.50
2023-04-26T14:48:11.984Z,6.82
2023-04-26T14:50:40.094Z,9.27
2023-04-26T14:53:08.220Z,18.42
2023-04-26T14:55:37.296Z,5.38
2023-04-26T14:58:04.982Z,27.52
2023-04-26T15:00:32.665Z,3.90
2023-04-26T15:03:00.379Z,4.30
2023-04-26T15:05:27.930Z,5.65
2023-04-26T15:07:55.574Z,4.07
2023-04-26T15:10:24.716Z,23.50
2023-04-26T15:12:52.569Z,24.88
2023-04-26T15:15:20.070Z,4.30
2023-04-26T15:17:47.760Z,3.20
2023-04-26T15:20:15.874Z,2.83
2023-04-26T15:22:43.714Z,2.50
2023-04-26T15:25:11.478Z,2.65
2023-04-26T15:27:40.430Z,1.70
2023-04-26T15:30:11.654Z,3.30
2023-04-26T15:32:40.379Z,2.85
2023-04-26T15:35:08.154Z,6.70
2023-04-26T15:37:37.219Z,3.80
2023-04-26T15:40:06.320Z,7.10
2023-04-26T15:42:33.936Z,3.83
2023-04-26T15:45:02.002Z,3.53
2023-04-26T15:47:30.130Z,3.92
2023-04-26T15:50:03.628Z,5.88
2023-04-26T15:52:36.868Z,5.22
2023-04-26T15:55:07.340Z,5.07
2023-04-26T15:57:35.151Z,6.95
2023-04-26T16:00:02.904Z,9.35
2023-04-26T16:02:32.305Z,14.20
2023-04-26T16:05:00.061Z,12.38
2023-04-26T16:07:27.623Z,8.45
2023-04-26T16:09:55.163Z,6.85
2023-04-26T16:12:23.385Z,7.22
2023-04-26T16:14:52.013Z,7.20
2023-04-26T16:17:19.521Z,7.32
2023-04-26T16:19:48.495Z,7.82
2023-04-26T16:22:16.105Z,7.60
2023-04-26T16:24:43.899Z,5.68
2023-04-26T16:27:11.474Z,9.13
2023-04-26T16:29:39.213Z,9.80
2023-04-26T16:32:06.662Z,8.75
2023-04-26T16:34:34.440Z,8.35
2023-04-26T16:37:01.900Z,8.45
2023-04-26T16:39:29.540Z,7.43
2023-04-26T16:41:57.609Z,7.40
2023-04-26T16:44:25.349Z,9.00
2023-04-26T16:46:52.826Z,9.50
2023-04-26T16:49:21.013Z,16.75
2023-04-26T16:51:58.922Z,25.00
2023-04-26T16:54:26.675Z,34.63
2023-04-26T16:56:54.174Z,35.38
2023-04-26T16:59:21.684Z,31.42
2023-04-26T17:01:49.277Z,25.35
2023-04-26T17:04:16.955Z,14.73
2023-04-26T17:06:45.261Z,19.83
2023-04-26T17:09:13.109Z,8.40
2023-04-26T17:11:43.668Z,6.75
2023-04-26T17:14:11.279Z,6.28
2023-04-26T17:16:38.806Z,7.20
2023-04-26T17:19:06.946Z,5.55
2023-04-26T17:21:34.611Z,7.93
2023-04-26T17:24:02.193Z,5.90
2023-04-26T17:26:30.616Z,6.28
2023-04-26T17:28:58.260Z,5.72
2023-04-26T17:31:25.724Z,6.40
2023-04-26T17:33:53.202Z,5.60
2023-04-26T17:36:20.820Z,7.13
2023-04-26T17:38:48.727Z,7.85
2023-04-26T17:41:19.045Z,11.07
2023-04-26T17:43:46.604Z,8.13
2023-04-26T17:46:14.454Z,6.28
2023-04-26T17:48:41.929Z,5.53
2023-04-26T17:51:09.625Z,5.20
2023-04-26T17:53:37.447Z,5.72
2023-04-26T17:56:07.678Z,5.28
2023-04-26T17:58:35.156Z,5.40
2023-04-26T18:01:02.921Z,6.00
2023-04-26T18:03:31.569Z,6.45
2023-04-26T18:05:59.487Z,5.47
2023-04-26T18:08:27.447Z,5.75
2023-04-26T18:10:55.987Z,6.25
2023-04-26T18:13:25.316Z,6.57
2023-04-26T18:15:55.016Z,6.18
2023-04-26T18:18:24.578Z,7.07
2023-04-26T18:20:54.068Z,7.65
2023-04-26T18:23:22.088Z,6.80
2023-04-26T18:25:50.666Z,8.10
2023-04-26T18:28:18.616Z,8.10
2023-04-26T18:30:46.441Z,7.15
2023-04-26T18:33:14.292Z,8.75
2023-04-26T18:35:42.104Z,10.13
2023-04-26T18:38:09.821Z,8.90
2023-04-26T18:40:37.550Z,7.60
2023-04-26T18:43:05.191Z,8.20
2023-04-26T18:45:34.605Z,6.20
2023-04-26T18:48:02.248Z,7.25
2023-04-26T18:50:31.416Z,7.55
2023-04-26T18:52:59.113Z,6.85
2023-04-26T18:55:26.935Z,6.97
2023-04-26T18:57:54.945Z,7.97
2023-04-26T19:00:22.754Z,7.18
2023-04-26T19:02:51.313Z,7.82
2023-04-26T19:05:19.542Z,6.95
2023-04-26T19:07:47.705Z,6.55
2023-04-26T19:10:16.725Z,7.22
2023-04-26T19:12:44.695Z,10.32
2023-04-26T19:15:12.344Z,14.18
2023-04-26T19:17:40.473Z,11.15
2023-04-26T19:20:12.673Z,10.80
2023-04-26T19:22:42.202Z,15.10
2023-04-26T19:25:10.520Z,9.40
2023-04-26T19:27:38.662Z,8.35
2023-04-26T19:30:07.304Z,7.60
2023-04-26T19:32:35.492Z,7.88
2023-04-26T19:35:06.241Z,8.30
2023-04-26T19:37:33.961Z,7.53
2023-04-26T19:40:01.743Z,7.90
2023-04-26T19:42:29.740Z,8.55
2023-04-26T19:44:58.458Z,7.57
2023-04-26T19:47:26.306Z,7.75
2023-04-26T19:49:55.645Z,7.00
2023-04-26T19:52:23.355Z,7.57
2023-04-26T19:54:54.703Z,7.25
2023-04-26T19:57:23.131Z,7.15
2023-04-26T19:59:50.721Z,7.72
2023-04-26T20:02:18.390Z,7.40
2023-04-26T20:04:46.208Z,6.28
2023-04-26T20:07:14.133Z,6.57
2023-04-26T20:09:41.632Z,8.68
2023-04-26T20:12:10.136Z,6.70
2023-04-26T20:14:37.988Z,5.97
2023-04-26T20:17:06.182Z,6.30
2023-04-26T20:19:34.414Z,6.18
2023-04-26T20:22:01.974Z,7.20
2023-04-26T20:24:29.883Z,7.63
2023-04-26T20:26:57.909Z,7.40
2023-04-26T20:29:26.097Z,6.68
2023-04-26T20:31:53.691Z,7.50
2023-04-26T20:34:21.584Z,8.18
2023-04-26T20:36:49.537Z,7.88
2023-04-26T20:39:17.276Z,7.60
2023-04-26T20:41:45.357Z,8.73
2023-04-26T20:44:13.277Z,10.25
2023-04-26T20:46:41.387Z,10.23
2023-04-26T20:49:09.366Z,9.13
2023-04-26T20:51:37.742Z,9.13
2023-04-26T20:54:05.284Z,8.27
2023-04-26T20:56:33.578Z,8.95
2023-04-26T20:59:02.116Z,9.60
2023-04-26T21:01:30.858Z,10.00
2023-04-26T21:03:58.597Z,10.40
2023-04-26T21:06:27.471Z,9.85
2023-04-26T21:08:55.214Z,10.15
2023-04-26T21:11:23.283Z,10.38
2023-04-26T21:13:51.242Z,12.07
2023-04-26T21:16:19.408Z,11.27
2023-04-26T21:18:47.799Z,11.48
2023-04-26T21:21:15.946Z,11.02
2023-04-26T21:23:44.215Z,10.60
2023-04-26T21:26:12.319Z,11.32
2023-04-26T21:28:40.401Z,10.80
2023-04-26T21:31:09.397Z,11.65
2023-04-26T21:33:37.535Z,10.85
2023-04-26T21:36:05.826Z,11.77
2023-04-26T21:38:35.828Z,11.88
2023-04-26T21:41:03.854Z,9.35
2023-04-26T21:43:32.020Z,10.50
2023-04-26T21:45:59.979Z,10.07
2023-04-26T21:48:28.270Z,11.18
2023-04-26T21:50:56.508Z,9.60
2023-04-26T21:53:24.737Z,10.40
2023-04-26T21:55:52.934Z,9.38
2023-04-26T21:58:21.512Z,8.27
2023-04-26T22:00:49.994Z,8.38
2023-04-26T22:03:19.336Z,8.98
2023-04-26T22:05:47.685Z,8.82
2023-04-26T22:08:17.359Z,9.48
2023-04-26T22:10:45.638Z,9.35
2023-04-26T22:13:14.226Z,9.07
2023-04-26T22:15:43.089Z,9.43
2023-04-26T22:18:11.866Z,8.98
2023-04-26T22:20:40.610Z,9.02
2023-04-26T22:23:09.452Z,9.25
2023-04-26T22:25:38.195Z,9.73
2023-04-26T22:28:07.405Z,10.18
2023-04-26T22:30:37.010Z,10.55
2023-04-26T22:33:07.390Z,9.57
2023-04-26T22:35:36.189Z,10.07
2023-04-26T22:38:05.938Z,10.10
2023-04-26T22:40:36.612Z,10.60
2023-04-26T22:43:05.990Z,10.77
2023-04-26T22:45:35.123Z,11.25
2023-04-26T22:48:04.728Z,10.27
2023-04-26T22:50:33.520Z,10.52
2023-04-26T22:53:02.274Z,10.48
2023-04-26T22:55:31.798Z,10.48
2023-04-26T22:57:59.806Z,10.38
2023-04-26T23:00:27.854Z,11.65
2023-04-26T23:02:57.454Z,11.00
2023-04-26T23:05:25.919Z,10.85
2023-04-26T23:07:55.099Z,11.35
2023-04-26T23:10:24.997Z,11.05
2023-04-26T23:12:54.001Z,11.48
2023-04-26T23:15:22.125Z,10.88
2023-04-26T23:17:51.027Z,11.82
2023-04-26T23:20:19.768Z,11.25
2023-04-26T23:22:47.777Z,11.60
2023-04-26T23:25:15.734Z,11.30
2023-04-26T23:27:44.078Z,11.40
2023-04-26T23:30:14.530Z,12.20
2023-04-26T23:32:42.973Z,11.77
2023-04-26T23:35:11.379Z,11.90
2023-04-26T23:37:39.733Z,11.52
2023-04-26T23:40:10.562Z,11.02
2023-04-26T23:42:38.682Z,11.10
2023-04-26T23:45:08.100Z,11.50
2023-04-26T23:47:36.160Z,12.20
2023-04-26T23:50:04.521Z,11.13
2023-04-26T23:52:32.662Z,12.25
2023-04-26T23:55:00.528Z,11.60
2023-04-26T23:57:28.384Z,10.98
2023-04-26T23:59:56.662Z,12.43
